sensor_id;sensor_type;location;lat;lon;timestamp;P1;durP1;ratioP1;P2;durP2;ratioP2
19187;SDS011;9726;52.198;8.792;2024-03-08T00:00:10;75.10;;;31.87;;
19187;SDS011;9726;52.198;8.792;2024-03-08T00:02:43;64.50;;;28.77;;
19187;SDS011;9726;52.198;8.792;2024-03-08T00:05:12;68.77;;;29.57;;
19187;SDS011;9726;52.198;8.792;2024-03-08T00:07:41;66.77;;;29.97;;
19187;SDS011;9726;52.198;8.792;2024-03-08T00:10:10;64.03;;;28.60;;
19187;SDS011;9726;52.198;8.792;2024-03-08T00:12:40;68.90;;;29.13;;
19187;SDS011;9726;52.198;8.792;2024-03-08T00:15:09;69.73;;;28.07;;
19187;SDS011;9726;52.198;8.792;2024-03-08T00:17:37;63.63;;;29.37;;
19187;SDS011;9726;52.198;8.792;2024-03-08T00:20:05;77.27;;;29.60;;
19187;SDS011;9726;52.198;8.792;2024-03-08T00:22:35;60.47;;;29.10;;
19187;SDS011;9726;52.198;8.792;2024-03-08T00:25:03;55.07;;;28.50;;
19187;SDS011;9726;52.198;8.792;2024-03-08T00:27:30;74.10;;;29.23;;
19187;SDS011;9726;52.198;8.792;2024-03-08T00:29:58;63.33;;;28.67;;
19187;SDS011;9726;52.198;8.792;2024-03-08T00:32:25;58.37;;;28.80;;
19187;SDS011;9726;52.198;8.792;2024-03-08T00:34:54;66.63;;;28.77;;
19187;SDS011;9726;52.198;8.792;2024-03-08T00:37:21;69.67;;;28.00;;
19187;SDS011;9726;52.198;8.792;2024-03-08T00:39:54;66.33;;;30.87;;
19187;SDS011;9726;52.198;8.792;2024-03-08T00:42:21;67.30;;;30.00;;
19187;SDS011;9726;52.198;8.792;2024-03-08T00:44:48;77.53;;;30.37;;
19187;SDS011;9726;52.198;8.792;2024-03-08T00:47:28;62.87;;;29.10;;
19187;SDS011;9726;52.198;8.792;2024-03-08T00:49:55;69.27;;;30.63;;
19187;SDS011;9726;52.198;8.792;2024-03-08T00:52:24;80.40;;;33.67;;
19187;SDS011;9726;52.198;8.792;2024-03-08T00:54:51;80.20;;;36.37;;
19187;SDS011;9726;52.198;8.792;2024-03-08T00:57:18;88.23;;;34.93;;
19187;SDS011;9726;52.198;8.792;2024-03-08T00:59:46;77.57;;;34.80;;
19187;SDS011;9726;52.198;8.792;2024-03-08T01:02:13;72.30;;;32.57;;
19187;SDS011;9726;52.198;8.792;2024-03-08T01:04:40;71.30;;;32.80;;
19187;SDS011;9726;52.198;8.792;2024-03-08T01:07:07;68.17;;;33.27;;
19187;SDS011;9726;52.198;8.792;2024-03-08T01:09:34;72.70;;;33.37;;
19187;SDS011;9726;52.198;8.792;2024-03-08T01:12:02;72.17;;;33.37;;
19187;SDS011;9726;52.198;8.792;2024-03-08T01:14:29;70.67;;;32.23;;
19187;SDS011;9726;52.198;8.792;2024-03-08T01:16:57;77.07;;;33.13;;
19187;SDS011;9726;52.198;8.792;2024-03-08T01:19:25;62.43;;;30.67;;
19187;SDS011;9726;52.198;8.792;2024-03-08T01:21:52;63.23;;;30.63;;
19187;SDS011;9726;52.198;8.792;2024-03-08T01:24:22;66.47;;;32.30;;
19187;SDS011;9726;52.198;8.792;2024-03-08T01:26:49;80.70;;;32.17;;
19187;SDS011;9726;52.198;8.792;2024-03-08T01:29:16;75.57;;;31.10;;
19187;SDS011;9726;52.198;8.792;2024-03-08T01:31:43;64.80;;;31.80;;
19187;SDS011;9726;52.198;8.792;2024-03-08T01:34:10;69.60;;;30.33;;
19187;SDS011;9726;52.198;8.792;2024-03-08T01:36:37;68.67;;;30.07;;
19187;SDS011;9726;52.198;8.792;2024-03-08T01:39:04;64.17;;;29.63;;
19187;SDS011;9726;52.198;8.792;2024-03-08T01:41:35;66.30;;;28.63;;
19187;SDS011;9726;52.198;8.792;2024-03-08T01:44:02;70.10;;;31.00;;
19187;SDS011;9726;52.198;8.792;2024-03-08T01:46:30;78.03;;;31.43;;
19187;SDS011;9726;52.198;8.792;2024-03-08T01:48:58;67.77;;;29.63;;
19187;SDS011;9726;52.198;8.792;2024-03-08T01:51:28;68.53;;;30.93;;
19187;SDS011;9726;52.198;8.792;2024-03-08T01:53:56;69.00;;;29.63;;
19187;SDS011;9726;52.198;8.792;2024-03-08T01:56:26;70.00;;;32.17;;
19187;SDS011;9726;52.198;8.792;2024-03-08T01:58:54;70.77;;;33.90;;
19187;SDS011;9726;52.198;8.792;2024-03-08T02:01:21;71.83;;;33.10;;
19187;SDS011;9726;52.198;8.792;2024-03-08T02:03:49;66.50;;;30.53;;
19187;SDS011;9726;52.198;8.792;2024-03-08T02:06:16;69.17;;;31.87;;
19187;SDS011;9726;52.198;8.792;2024-03-08T02:08:44;79.33;;;33.10;;
19187;SDS011;9726;52.198;8.792;2024-03-08T02:11:12;78.10;;;34.23;;
19187;SDS011;9726;52.198;8.792;2024-03-08T02:13:40;77.33;;;32.33;;
19187;SDS011;9726;52.198;8.792;2024-03-08T02:16:07;75.30;;;32.10;;
19187;SDS011;9726;52.198;8.792;2024-03-08T02:18:35;77.17;;;33.80;;
19187;SDS011;9726;52.198;8.792;2024-03-08T02:21:04;77.07;;;32.73;;
19187;SDS011;9726;52.198;8.792;2024-03-08T02:23:33;80.63;;;33.77;;
19187;SDS011;9726;52.198;8.792;2024-03-08T02:26:00;79.90;;;35.00;;
19187;SDS011;9726;52.198;8.792;2024-03-08T02:28:27;81.20;;;33.80;;
19187;SDS011;9726;52.198;8.792;2024-03-08T02:30:55;78.03;;;32.83;;
19187;SDS011;9726;52.198;8.792;2024-03-08T02:33:25;79.50;;;33.27;;
19187;SDS011;9726;52.198;8.792;2024-03-08T02:35:54;75.70;;;33.63;;
19187;SDS011;9726;52.198;8.792;2024-03-08T02:38:22;77.93;;;32.90;;
19187;SDS011;9726;52.198;8.792;2024-03-08T02:40:52;73.23;;;32.87;;
19187;SDS011;9726;52.198;8.792;2024-03-08T02:43:20;76.67;;;32.03;;
19187;SDS011;9726;52.198;8.792;2024-03-08T02:45:52;72.97;;;33.27;;
19187;SDS011;9726;52.198;8.792;2024-03-08T02:48:22;83.63;;;34.93;;
19187;SDS011;9726;52.198;8.792;2024-03-08T02:50:50;80.27;;;33.40;;
19187;SDS011;9726;52.198;8.792;2024-03-08T02:53:18;74.27;;;32.63;;
19187;SDS011;9726;52.198;8.792;2024-03-08T02:55:45;77.37;;;34.40;;
19187;SDS011;9726;52.198;8.792;2024-03-08T02:58:13;78.40;;;33.10;;
19187;SDS011;9726;52.198;8.792;2024-03-08T03:00:41;72.47;;;34.03;;
19187;SDS011;9726;52.198;8.792;2024-03-08T03:03:09;78.30;;;33.60;;
19187;SDS011;9726;52.198;8.792;2024-03-08T03:05:37;75.63;;;32.90;;
19187;SDS011;9726;52.198;8.792;2024-03-08T03:08:04;76.33;;;34.70;;
19187;SDS011;9726;52.198;8.792;2024-03-08T03:10:36;79.50;;;32.73;;
19187;SDS011;9726;52.198;8.792;2024-03-08T03:13:04;78.20;;;34.17;;
19187;SDS011;9726;52.198;8.792;2024-03-08T03:15:31;79.47;;;30.60;;
19187;SDS011;9726;52.198;8.792;2024-03-08T03:18:00;75.07;;;32.90;;
19187;SDS011;9726;52.198;8.792;2024-03-08T03:20:28;75.43;;;32.43;;
19187;SDS011;9726;52.198;8.792;2024-03-08T03:23:00;78.03;;;31.83;;
19187;SDS011;9726;52.198;8.792;2024-03-08T03:25:29;69.40;;;31.40;;
19187;SDS011;9726;52.198;8.792;2024-03-08T03:28:03;68.27;;;32.17;;
19187;SDS011;9726;52.198;8.792;2024-03-08T03:30:31;84.07;;;34.57;;
19187;SDS011;9726;52.198;8.792;2024-03-08T03:33:01;83.87;;;32.90;;
19187;SDS011;9726;52.198;8.792;2024-03-08T03:35:33;78.57;;;35.10;;
19187;SDS011;9726;52.198;8.792;2024-03-08T03:38:00;76.40;;;35.23;;
19187;SDS011;9726;52.198;8.792;2024-03-08T03:40:33;83.60;;;33.73;;
19187;SDS011;9726;52.198;8.792;2024-03-08T03:43:01;90.23;;;35.83;;
19187;SDS011;9726;52.198;8.792;2024-03-08T03:45:29;81.30;;;36.03;;
19187;SDS011;9726;52.198;8.792;2024-03-08T03:48:04;85.60;;;36.40;;
19187;SDS011;9726;52.198;8.792;2024-03-08T03:50:33;82.07;;;35.13;;
19187;SDS011;9726;52.198;8.792;2024-03-08T03:53:03;78.03;;;34.20;;
19187;SDS011;9726;52.198;8.792;2024-03-08T03:55:31;84.70;;;36.50;;
19187;SDS011;9726;52.198;8.792;2024-03-08T03:57:58;72.83;;;33.50;;
19187;SDS011;9726;52.198;8.792;2024-03-08T04:00:27;81.87;;;34.20;;
19187;SDS011;9726;52.198;8.792;2024-03-08T04:02:55;85.83;;;35.97;;
19187;SDS011;9726;52.198;8.792;2024-03-08T04:05:25;74.63;;;33.80;;
19187;SDS011;9726;52.198;8.792;2024-03-08T04:07:52;83.60;;;35.27;;
19187;SDS011;9726;52.198;8.792;2024-03-08T04:10:20;80.33;;;33.80;;
19187;SDS011;9726;52.198;8.792;2024-03-08T04:12:47;79.77;;;35.60;;
19187;SDS011;9726;52.198;8.792;2024-03-08T04:15:14;80.13;;;34.07;;
19187;SDS011;9726;52.198;8.792;2024-03-08T04:17:42;75.33;;;31.90;;
19187;SDS011;9726;52.198;8.792;2024-03-08T04:20:09;77.13;;;33.33;;
19187;SDS011;9726;52.198;8.792;2024-03-08T04:22:37;77.97;;;33.77;;
19187;SDS011;9726;52.198;8.792;2024-03-08T04:25:06;74.37;;;33.83;;
19187;SDS011;9726;52.198;8.792;2024-03-08T04:27:33;79.37;;;34.07;;
19187;SDS011;9726;52.198;8.792;2024-03-08T04:30:01;73.83;;;34.60;;
19187;SDS011;9726;52.198;8.792;2024-03-08T04:32:29;75.47;;;32.70;;
19187;SDS011;9726;52.198;8.792;2024-03-08T04:34:59;73.03;;;33.80;;
19187;SDS011;9726;52.198;8.792;2024-03-08T04:37:30;72.47;;;33.10;;
19187;SDS011;9726;52.198;8.792;2024-03-08T04:39:58;78.87;;;34.13;;
19187;SDS011;9726;52.198;8.792;2024-03-08T04:42:28;78.67;;;30.93;;
19187;SDS011;9726;52.198;8.792;2024-03-08T04:44:56;79.80;;;33.57;;
19187;SDS011;9726;52.198;8.792;2024-03-08T04:47:25;90.77;;;35.77;;
19187;SDS011;9726;52.198;8.792;2024-03-08T04:49:52;86.93;;;36.43;;
19187;SDS011;9726;52.198;8.792;2024-03-08T04:52:19;86.50;;;36.23;;
19187;SDS011;9726;52.198;8.792;2024-03-08T04:54:48;95.37;;;37.20;;
19187;SDS011;9726;52.198;8.792;2024-03-08T04:57:15;87.60;;;34.77;;
19187;SDS011;9726;52.198;8.792;2024-03-08T04:59:45;86.37;;;35.27;;
19187;SDS011;9726;52.198;8.792;2024-03-08T05:02:12;90.37;;;35.83;;
19187;SDS011;9726;52.198;8.792;2024-03-08T05:04:39;82.03;;;34.83;;
19187;SDS011;9726;52.198;8.792;2024-03-08T05:07:06;101.53;;;39.37;;
19187;SDS011;9726;52.198;8.792;2024-03-08T05:09:33;98.27;;;38.70;;
19187;SDS011;9726;52.198;8.792;2024-03-08T05:12:00;99.03;;;38.80;;
19187;SDS011;9726;52.198;8.792;2024-03-08T05:14:28;95.60;;;40.87;;
19187;SDS011;9726;52.198;8.792;2024-03-08T05:16:56;99.47;;;40.67;;
19187;SDS011;9726;52.198;8.792;2024-03-08T05:19:23;107.17;;;39.67;;
19187;SDS011;9726;52.198;8.792;2024-03-08T05:21:51;115.30;;;48.27;;
19187;SDS011;9726;52.198;8.792;2024-03-08T05:27:10;98.57;;;41.33;;
19187;SDS011;9726;52.198;8.792;2024-03-08T05:29:37;104.77;;;40.90;;
19187;SDS011;9726;52.198;8.792;2024-03-08T05:32:04;93.07;;;39.00;;
19187;SDS011;9726;52.198;8.792;2024-03-08T05:34:33;108.73;;;41.03;;
19187;SDS011;9726;52.198;8.792;2024-03-08T05:37:02;91.03;;;40.17;;
19187;SDS011;9726;52.198;8.792;2024-03-08T05:39:30;95.67;;;38.87;;
19187;SDS011;9726;52.198;8.792;2024-03-08T05:41:58;105.33;;;39.57;;
19187;SDS011;9726;52.198;8.792;2024-03-08T05:44:25;96.67;;;38.90;;
19187;SDS011;9726;52.198;8.792;2024-03-08T05:46:55;97.03;;;39.33;;
19187;SDS011;9726;52.198;8.792;2024-03-08T05:49:22;99.23;;;36.80;;
19187;SDS011;9726;52.198;8.792;2024-03-08T05:51:53;131.27;;;51.47;;
19187;SDS011;9726;52.198;8.792;2024-03-08T05:54:21;103.97;;;42.03;;
19187;SDS011;9726;52.198;8.792;2024-03-08T05:56:51;103.23;;;41.33;;
19187;SDS011;9726;52.198;8.792;2024-03-08T05:59:19;95.87;;;40.63;;
19187;SDS011;9726;52.198;8.792;2024-03-08T06:01:46;86.83;;;37.63;;
19187;SDS011;9726;52.198;8.792;2024-03-08T06:04:13;105.03;;;42.30;;
19187;SDS011;9726;52.198;8.792;2024-03-08T06:06:40;96.67;;;39.57;;
19187;SDS011;9726;52.198;8.792;2024-03-08T06:09:08;93.63;;;38.73;;
19187;SDS011;9726;52.198;8.792;2024-03-08T06:11:41;99.00;;;40.73;;
19187;SDS011;9726;52.198;8.792;2024-03-08T06:14:09;104.47;;;41.67;;
19187;SDS011;9726;52.198;8.792;2024-03-08T06:16:36;105.77;;;40.73;;
19187;SDS011;9726;52.198;8.792;2024-03-08T06:19:04;104.67;;;41.00;;
19187;SDS011;9726;52.198;8.792;2024-03-08T06:21:32;104.23;;;41.90;;
19187;SDS011;9726;52.198;8.792;2024-03-08T06:24:00;106.80;;;40.93;;
19187;SDS011;9726;52.198;8.792;2024-03-08T06:26:29;100.80;;;40.73;;
19187;SDS011;9726;52.198;8.792;2024-03-08T06:29:03;100.43;;;41.47;;
19187;SDS011;9726;52.198;8.792;2024-03-08T06:31:33;96.30;;;43.37;;
19187;SDS011;9726;52.198;8.792;2024-03-08T06:34:00;101.00;;;41.17;;
19187;SDS011;9726;52.198;8.792;2024-03-08T06:36:28;115.53;;;44.37;;
19187;SDS011;9726;52.198;8.792;2024-03-08T06:38:55;105.57;;;42.23;;
19187;SDS011;9726;52.198;8.792;2024-03-08T06:41:23;113.10;;;44.80;;
19187;SDS011;9726;52.198;8.792;2024-03-08T06:43:51;127.90;;;54.88;;
19187;SDS011;9726;52.198;8.792;2024-03-08T06:46:20;107.53;;;54.17;;
19187;SDS011;9726;52.198;8.792;2024-03-08T06:48:47;99.53;;;45.33;;
19187;SDS011;9726;52.198;8.792;2024-03-08T06:51:18;96.53;;;41.93;;
19187;SDS011;9726;52.198;8.792;2024-03-08T06:53:45;99.97;;;44.17;;
19187;SDS011;9726;52.198;8.792;2024-03-08T06:56:13;94.07;;;42.00;;
19187;SDS011;9726;52.198;8.792;2024-03-08T06:58:40;96.10;;;40.10;;
19187;SDS011;9726;52.198;8.792;2024-03-08T07:01:07;93.03;;;40.67;;
19187;SDS011;9726;52.198;8.792;2024-03-08T07:03:43;93.30;;;41.17;;
19187;SDS011;9726;52.198;8.792;2024-03-08T07:06:16;129.50;;;54.37;;
19187;SDS011;9726;52.198;8.792;2024-03-08T07:08:46;110.03;;;46.33;;
19187;SDS011;9726;52.198;8.792;2024-03-08T07:11:15;88.07;;;39.00;;
19187;SDS011;9726;52.198;8.792;2024-03-08T07:13:45;93.50;;;39.77;;
19187;SDS011;9726;52.198;8.792;2024-03-08T07:16:12;91.33;;;38.50;;
19187;SDS011;9726;52.198;8.792;2024-03-08T07:18:39;93.43;;;39.63;;
19187;SDS011;9726;52.198;8.792;2024-03-08T07:21:10;97.93;;;40.37;;
19187;SDS011;9726;52.198;8.792;2024-03-08T07:23:38;89.40;;;39.90;;
19187;SDS011;9726;52.198;8.792;2024-03-08T07:26:30;82.47;;;37.17;;
19187;SDS011;9726;52.198;8.792;2024-03-08T07:28:58;90.10;;;40.60;;
19187;SDS011;9726;52.198;8.792;2024-03-08T07:31:27;90.27;;;37.40;;
19187;SDS011;9726;52.198;8.792;2024-03-08T07:34:13;96.33;;;39.00;;
19187;SDS011;9726;52.198;8.792;2024-03-08T07:36:40;87.07;;;38.07;;
19187;SDS011;9726;52.198;8.792;2024-03-08T07:39:07;93.37;;;37.13;;
19187;SDS011;9726;52.198;8.792;2024-03-08T07:41:38;85.97;;;38.07;;
19187;SDS011;9726;52.198;8.792;2024-03-08T07:44:08;84.33;;;38.03;;
19187;SDS011;9726;52.198;8.792;2024-03-08T07:46:35;88.20;;;36.50;;
19187;SDS011;9726;52.198;8.792;2024-03-08T07:49:03;77.77;;;37.00;;
19187;SDS011;9726;52.198;8.792;2024-03-08T07:51:30;85.90;;;34.93;;
19187;SDS011;9726;52.198;8.792;2024-03-08T07:53:58;82.47;;;36.50;;
19187;SDS011;9726;52.198;8.792;2024-03-08T07:56:26;77.20;;;36.50;;
19187;SDS011;9726;52.198;8.792;2024-03-08T07:58:53;73.70;;;33.93;;
19187;SDS011;9726;52.198;8.792;2024-03-08T08:01:20;84.03;;;34.80;;
19187;SDS011;9726;52.198;8.792;2024-03-08T08:03:47;85.30;;;35.03;;
19187;SDS011;9726;52.198;8.792;2024-03-08T08:06:17;80.30;;;36.47;;
19187;SDS011;9726;52.198;8.792;2024-03-08T08:08:44;79.07;;;34.37;;
19187;SDS011;9726;52.198;8.792;2024-03-08T08:11:11;75.20;;;34.37;;
19187;SDS011;9726;52.198;8.792;2024-03-08T08:13:39;69.37;;;33.40;;
19187;SDS011;9726;52.198;8.792;2024-03-08T08:16:06;74.17;;;33.90;;
19187;SDS011;9726;52.198;8.792;2024-03-08T08:18:33;68.80;;;30.97;;
19187;SDS011;9726;52.198;8.792;2024-03-08T08:21:02;69.40;;;33.40;;
19187;SDS011;9726;52.198;8.792;2024-03-08T08:23:29;75.60;;;33.80;;
19187;SDS011;9726;52.198;8.792;2024-03-08T08:25:56;69.70;;;31.90;;
19187;SDS011;9726;52.198;8.792;2024-03-08T08:28:23;71.93;;;33.33;;
19187;SDS011;9726;52.198;8.792;2024-03-08T08:30:51;66.03;;;30.57;;
19187;SDS011;9726;52.198;8.792;2024-03-08T08:33:18;71.37;;;32.47;;
19187;SDS011;9726;52.198;8.792;2024-03-08T08:35:45;64.10;;;30.23;;
19187;SDS011;9726;52.198;8.792;2024-03-08T08:38:14;71.50;;;31.53;;
19187;SDS011;9726;52.198;8.792;2024-03-08T08:40:41;65.50;;;31.07;;
19187;SDS011;9726;52.198;8.792;2024-03-08T08:43:08;65.10;;;31.40;;
19187;SDS011;9726;52.198;8.792;2024-03-08T08:45:35;67.73;;;31.47;;
19187;SDS011;9726;52.198;8.792;2024-03-08T08:48:02;68.00;;;29.93;;
19187;SDS011;9726;52.198;8.792;2024-03-08T08:50:32;62.40;;;29.73;;
19187;SDS011;9726;52.198;8.792;2024-03-08T08:52:59;70.20;;;31.37;;
19187;SDS011;9726;52.198;8.792;2024-03-08T08:55:26;76.27;;;31.07;;
19187;SDS011;9726;52.198;8.792;2024-03-08T08:57:53;57.83;;;28.77;;
19187;SDS011;9726;52.198;8.792;2024-03-08T09:00:21;67.53;;;30.50;;
19187;SDS011;9726;52.198;8.792;2024-03-08T09:02:50;73.77;;;31.93;;
19187;SDS011;9726;52.198;8.792;2024-03-08T09:05:18;65.90;;;30.17;;
19187;SDS011;9726;52.198;8.792;2024-03-08T09:07:45;61.20;;;31.80;;
19187;SDS011;9726;52.198;8.792;2024-03-08T09:10:12;66.57;;;30.43;;
19187;SDS011;9726;52.198;8.792;2024-03-08T09:12:44;67.30;;;31.67;;
19187;SDS011;9726;52.198;8.792;2024-03-08T09:15:11;63.63;;;30.70;;
19187;SDS011;9726;52.198;8.792;2024-03-08T09:17:39;62.83;;;31.63;;
19187;SDS011;9726;52.198;8.792;2024-03-08T09:20:08;64.43;;;30.07;;
19187;SDS011;9726;52.198;8.792;2024-03-08T09:22:37;60.77;;;29.77;;
19187;SDS011;9726;52.198;8.792;2024-03-08T09:25:04;66.37;;;30.07;;
19187;SDS011;9726;52.198;8.792;2024-03-08T09:27:32;54.53;;;27.20;;
19187;SDS011;9726;52.198;8.792;2024-03-08T09:30:04;60.87;;;29.80;;
19187;SDS011;9726;52.198;8.792;2024-03-08T09:32:34;66.60;;;30.80;;
19187;SDS011;9726;52.198;8.792;2024-03-08T09:35:01;64.27;;;29.50;;
19187;SDS011;9726;52.198;8.792;2024-03-08T09:37:29;62.87;;;29.53;;
19187;SDS011;9726;52.198;8.792;2024-03-08T09:39:57;64.47;;;30.57;;
19187;SDS011;9726;52.198;8.792;2024-03-08T09:42:25;65.17;;;30.97;;
19187;SDS011;9726;52.198;8.792;2024-03-08T09:44:53;59.87;;;29.33;;
19187;SDS011;9726;52.198;8.792;2024-03-08T09:47:20;62.57;;;30.13;;
19187;SDS011;9726;52.198;8.792;2024-03-08T09:49:51;60.77;;;29.83;;
19187;SDS011;9726;52.198;8.792;2024-03-08T09:52:19;66.67;;;30.97;;
19187;SDS011;9726;52.198;8.792;2024-03-08T09:54:47;62.47;;;29.13;;
19187;SDS011;9726;52.198;8.792;2024-03-08T09:57:14;62.90;;;30.57;;
19187;SDS011;9726;52.198;8.792;2024-03-08T09:59:44;59.13;;;29.13;;
19187;SDS011;9726;52.198;8.792;2024-03-08T10:02:14;61.30;;;30.43;;
19187;SDS011;9726;52.198;8.792;2024-03-08T10:04:42;56.30;;;28.07;;
19187;SDS011;9726;52.198;8.792;2024-03-08T10:07:13;58.23;;;28.03;;
19187;SDS011;9726;52.198;8.792;2024-03-08T10:09:40;55.17;;;29.17;;
19187;SDS011;9726;52.198;8.792;2024-03-08T10:12:13;61.57;;;28.97;;
19187;SDS011;9726;52.198;8.792;2024-03-08T10:14:45;62.03;;;29.70;;
19187;SDS011;9726;52.198;8.792;2024-03-08T10:17:13;58.17;;;29.40;;
19187;SDS011;9726;52.198;8.792;2024-03-08T10:19:48;58.67;;;28.30;;
19187;SDS011;9726;52.198;8.792;2024-03-08T10:22:18;65.73;;;30.67;;
19187;SDS011;9726;52.198;8.792;2024-03-08T10:24:46;58.40;;;27.43;;
19187;SDS011;9726;52.198;8.792;2024-03-08T10:27:13;57.23;;;27.37;;
19187;SDS011;9726;52.198;8.792;2024-03-08T10:29:42;57.40;;;29.57;;
19187;SDS011;9726;52.198;8.792;2024-03-08T10:32:12;57.60;;;27.77;;
19187;SDS011;9726;52.198;8.792;2024-03-08T10:34:39;53.73;;;27.90;;
19187;SDS011;9726;52.198;8.792;2024-03-08T10:37:09;56.27;;;26.87;;
19187;SDS011;9726;52.198;8.792;2024-03-08T10:39:50;62.53;;;27.97;;
19187;SDS011;9726;52.198;8.792;2024-03-08T10:42:58;57.73;;;26.80;;
19187;SDS011;9726;52.198;8.792;2024-03-08T10:45:45;55.80;;;26.30;;
19187;SDS011;9726;52.198;8.792;2024-03-08T10:48:31;57.70;;;26.97;;
19187;SDS011;9726;52.198;8.792;2024-03-08T10:51:05;54.77;;;27.17;;
19187;SDS011;9726;52.198;8.792;2024-03-08T10:53:34;56.03;;;27.73;;
19187;SDS011;9726;52.198;8.792;2024-03-08T10:56:04;56.10;;;27.10;;
19187;SDS011;9726;52.198;8.792;2024-03-08T10:58:31;54.13;;;25.60;;
19187;SDS011;9726;52.198;8.792;2024-03-08T11:01:01;54.73;;;26.57;;
19187;SDS011;9726;52.198;8.792;2024-03-08T11:06:15;47.97;;;26.60;;
19187;SDS011;9726;52.198;8.792;2024-03-08T11:08:45;50.20;;;26.13;;
19187;SDS011;9726;52.198;8.792;2024-03-08T11:11:26;50.90;;;25.70;;
19187;SDS011;9726;52.198;8.792;2024-03-08T11:14:01;58.17;;;27.17;;
19187;SDS011;9726;52.198;8.792;2024-03-08T11:19:01;49.20;;;25.47;;
19187;SDS011;9726;52.198;8.792;2024-03-08T11:24:50;52.70;;;25.73;;
19187;SDS011;9726;52.198;8.792;2024-03-08T11:27:17;51.63;;;25.33;;
19187;SDS011;9726;52.198;8.792;2024-03-08T11:29:44;49.30;;;24.70;;
19187;SDS011;9726;52.198;8.792;2024-03-08T11:32:12;49.27;;;25.67;;
19187;SDS011;9726;52.198;8.792;2024-03-08T11:34:42;43.50;;;23.77;;
19187;SDS011;9726;52.198;8.792;2024-03-08T11:37:17;46.10;;;25.07;;
19187;SDS011;9726;52.198;8.792;2024-03-08T11:39:46;49.03;;;25.43;;
19187;SDS011;9726;52.198;8.792;2024-03-08T11:42:18;55.13;;;24.43;;
19187;SDS011;9726;52.198;8.792;2024-03-08T11:44:46;47.60;;;26.03;;
19187;SDS011;9726;52.198;8.792;2024-03-08T11:47:14;51.23;;;24.40;;
19187;SDS011;9726;52.198;8.792;2024-03-08T11:49:43;48.87;;;23.73;;
19187;SDS011;9726;52.198;8.792;2024-03-08T11:52:15;51.80;;;25.20;;
19187;SDS011;9726;52.198;8.792;2024-03-08T11:54:53;51.20;;;26.80;;
19187;SDS011;9726;52.198;8.792;2024-03-08T11:57:26;50.90;;;25.47;;
19187;SDS011;9726;52.198;8.792;2024-03-08T11:59:55;52.37;;;25.73;;
19187;SDS011;9726;52.198;8.792;2024-03-08T12:02:35;44.17;;;24.00;;
19187;SDS011;9726;52.198;8.792;2024-03-08T12:05:04;43.03;;;23.53;;
19187;SDS011;9726;52.198;8.792;2024-03-08T12:07:36;51.47;;;25.90;;
19187;SDS011;9726;52.198;8.792;2024-03-08T12:12:48;46.37;;;21.73;;
19187;SDS011;9726;52.198;8.792;2024-03-08T12:15:21;47.03;;;24.30;;
19187;SDS011;9726;52.198;8.792;2024-03-08T12:17:50;50.73;;;24.33;;
19187;SDS011;9726;52.198;8.792;2024-03-08T12:20:25;51.77;;;24.13;;
19187;SDS011;9726;52.198;8.792;2024-03-08T12:22:55;43.50;;;22.30;;
19187;SDS011;9726;52.198;8.792;2024-03-08T12:25:30;48.50;;;23.00;;
19187;SDS011;9726;52.198;8.792;2024-03-08T12:28:09;48.00;;;24.27;;
19187;SDS011;9726;52.198;8.792;2024-03-08T12:30:47;50.13;;;23.57;;
19187;SDS011;9726;52.198;8.792;2024-03-08T12:33:17;42.77;;;22.97;;
19187;SDS011;9726;52.198;8.792;2024-03-08T12:35:51;47.33;;;23.30;;
19187;SDS011;9726;52.198;8.792;2024-03-08T12:38:23;46.77;;;24.60;;
19187;SDS011;9726;52.198;8.792;2024-03-08T12:41:00;43.70;;;22.03;;
19187;SDS011;9726;52.198;8.792;2024-03-08T12:43:28;45.10;;;24.40;;
19187;SDS011;9726;52.198;8.792;2024-03-08T12:45:58;45.60;;;24.10;;
19187;SDS011;9726;52.198;8.792;2024-03-08T12:48:25;50.83;;;24.77;;
19187;SDS011;9726;52.198;8.792;2024-03-08T12:50:52;51.17;;;24.93;;
19187;SDS011;9726;52.198;8.792;2024-03-08T12:53:21;50.70;;;25.20;;
19187;SDS011;9726;52.198;8.792;2024-03-08T12:55:49;46.07;;;24.47;;
19187;SDS011;9726;52.198;8.792;2024-03-08T12:58:17;48.03;;;23.20;;
19187;SDS011;9726;52.198;8.792;2024-03-08T13:00:44;48.83;;;25.20;;
19187;SDS011;9726;52.198;8.792;2024-03-08T13:03:12;54.77;;;24.83;;
19187;SDS011;9726;52.198;8.792;2024-03-08T13:05:39;46.93;;;24.33;;
19187;SDS011;9726;52.198;8.792;2024-03-08T13:08:07;42.20;;;24.03;;
19187;SDS011;9726;52.198;8.792;2024-03-08T13:10:39;42.53;;;23.53;;
19187;SDS011;9726;52.198;8.792;2024-03-08T13:13:10;41.37;;;22.73;;
19187;SDS011;9726;52.198;8.792;2024-03-08T13:15:41;44.10;;;22.03;;
19187;SDS011;9726;52.198;8.792;2024-03-08T13:18:08;41.43;;;21.50;;
19187;SDS011;9726;52.198;8.792;2024-03-08T13:20:37;50.63;;;24.17;;
19187;SDS011;9726;52.198;8.792;2024-03-08T13:23:13;48.17;;;24.07;;
19187;SDS011;9726;52.198;8.792;2024-03-08T13:25:40;44.30;;;22.53;;
19187;SDS011;9726;52.198;8.792;2024-03-08T13:28:14;44.70;;;24.37;;
19187;SDS011;9726;52.198;8.792;2024-03-08T13:30:42;56.00;;;25.43;;
19187;SDS011;9726;52.198;8.792;2024-03-08T13:33:10;46.37;;;23.67;;
19187;SDS011;9726;52.198;8.792;2024-03-08T13:35:38;47.23;;;23.53;;
19187;SDS011;9726;52.198;8.792;2024-03-08T13:38:07;47.03;;;23.60;;
19187;SDS011;9726;52.198;8.792;2024-03-08T13:40:36;50.03;;;24.20;;
19187;SDS011;9726;52.198;8.792;2024-03-08T13:43:03;43.77;;;23.30;;
19187;SDS011;9726;52.198;8.792;2024-03-08T13:45:30;50.20;;;26.63;;
19187;SDS011;9726;52.198;8.792;2024-03-08T13:47:57;51.20;;;24.80;;
19187;SDS011;9726;52.198;8.792;2024-03-08T13:50:25;40.70;;;22.80;;
19187;SDS011;9726;52.198;8.792;2024-03-08T13:52:53;47.50;;;23.80;;
19187;SDS011;9726;52.198;8.792;2024-03-08T13:55:22;50.93;;;25.33;;
19187;SDS011;9726;52.198;8.792;2024-03-08T13:57:52;51.37;;;27.17;;
19187;SDS011;9726;52.198;8.792;2024-03-08T14:00:19;46.97;;;25.83;;
19187;SDS011;9726;52.198;8.792;2024-03-08T14:02:52;48.90;;;24.93;;
19187;SDS011;9726;52.198;8.792;2024-03-08T14:05:20;50.93;;;25.77;;
19187;SDS011;9726;52.198;8.792;2024-03-08T14:07:48;48.03;;;25.30;;
19187;SDS011;9726;52.198;8.792;2024-03-08T14:10:16;45.67;;;25.10;;
19187;SDS011;9726;52.198;8.792;2024-03-08T14:12:49;50.40;;;24.37;;
19187;SDS011;9726;52.198;8.792;2024-03-08T14:15:17;58.37;;;27.50;;
19187;SDS011;9726;52.198;8.792;2024-03-08T14:17:44;51.07;;;26.40;;
19187;SDS011;9726;52.198;8.792;2024-03-08T14:20:13;50.47;;;26.20;;
19187;SDS011;9726;52.198;8.792;2024-03-08T14:22:41;48.33;;;25.50;;
19187;SDS011;9726;52.198;8.792;2024-03-08T14:25:11;59.63;;;26.87;;
19187;SDS011;9726;52.198;8.792;2024-03-08T14:27:46;51.63;;;26.03;;
19187;SDS011;9726;52.198;8.792;2024-03-08T14:30:13;52.07;;;27.70;;
19187;SDS011;9726;52.198;8.792;2024-03-08T14:32:58;47.93;;;25.13;;
19187;SDS011;9726;52.198;8.792;2024-03-08T14:35:29;53.93;;;26.47;;
19187;SDS011;9726;52.198;8.792;2024-03-08T14:37:56;46.67;;;24.83;;
19187;SDS011;9726;52.198;8.792;2024-03-08T14:40:25;53.83;;;27.03;;
19187;SDS011;9726;52.198;8.792;2024-03-08T14:42:52;59.17;;;28.30;;
19187;SDS011;9726;52.198;8.792;2024-03-08T14:45:20;53.20;;;25.73;;
19187;SDS011;9726;52.198;8.792;2024-03-08T14:47:47;46.43;;;24.77;;
19187;SDS011;9726;52.198;8.792;2024-03-08T14:50:18;50.57;;;25.37;;
19187;SDS011;9726;52.198;8.792;2024-03-08T14:52:47;52.60;;;24.00;;
19187;SDS011;9726;52.198;8.792;2024-03-08T14:55:15;50.67;;;26.90;;
19187;SDS011;9726;52.198;8.792;2024-03-08T14:57:43;46.30;;;23.23;;